Time;durP1;ratioP1;P1;durP2;ratioP2;P2;SDS_P1;SDS_P2;PMS_P1;PMS_P2;Temp;Humidity;BMP_temperature;BMP_pressure;BME280_temperature;BME280_humidity;BME280_pressure;Samples;Min_cycle;Max_cycle;Signal;HPM_P1;HPM_P2
2023/01/23 00:01:04;;;;;;;17.85;13.23;;;;;;;5.79;64.94;101991.84;5052382;28;20697;-60
2023/01/23 00:03:32;;;;;;;17.80;13.45;;;;;;;5.80;64.81;101992.72;5052647;28;20490;-61
2023/01/23 00:06:04;;;;;;;18.17;13.52;;;;;;;5.84;64.54;101986.44;5055711;28;20057;-61
2023/01/23 00:08:32;;;;;;;17.95;13.65;;;;;;;5.82;64.63;101994.13;5049994;28;20501;-60
2023/01/23 00:10:59;;;;;;;18.33;14.48;;;;;;;5.80;65.02;101987.19;5049832;28;20669;-60
2023/01/23 00:13:26;;;;;;;18.55;13.20;;;;;;;5.77;64.46;101994.00;5053778;28;20509;-61
2023/01/23 00:15:54;;;;;;;20.77;15.80;;;;;;;5.77;64.85;101990.41;5052994;28;20497;-61
2023/01/23 00:18:21;;;;;;;17.67;13.30;;;;;;;5.81;64.65;101995.22;5041880;28;20059;-60
2023/01/23 00:20:48;;;;;;;18.67;14.95;;;;;;;5.69;64.88;101991.63;5054304;28;20049;-61
2023/01/23 00:23:17;;;;;;;20.38;14.38;;;;;;;5.65;65.26;101996.00;5054283;28;20052;-61
2023/01/23 00:25:47;;;;;;;20.67;15.15;;;;;;;5.72;65.51;101990.31;5052892;28;20405;-61
2023/01/23 00:28:14;;;;;;;19.60;14.68;;;;;;;5.74;64.83;101990.91;5052425;28;20060;-61
2023/01/23 00:30:41;;;;;;;21.33;15.38;;;;;;;5.78;65.24;101990.19;5054560;28;20053;-61
2023/01/23 00:33:09;;;;;;;23.25;16.83;;;;;;;5.73;64.86;101987.28;5054770;28;20429;-60
2023/01/23 00:35:36;;;;;;;18.92;13.68;;;;;;;5.74;64.97;101988.16;5054346;28;20071;-60
2023/01/23 00:38:03;;;;;;;18.70;13.90;;;;;;;5.73;65.08;101981.75;5051772;28;20056;-60
2023/01/23 00:40:33;;;;;;;22.77;16.00;;;;;;;5.59;65.31;101992.28;5053943;28;20103;-60
2023/01/23 00:43:00;;;;;;;22.08;15.80;;;;;;;5.65;65.29;101991.31;5050926;28;20061;-60
2023/01/23 00:45:30;;;;;;;18.80;15.15;;;;;;;5.73;65.22;101992.00;5054227;28;20048;-61
2023/01/23 00:47:57;;;;;;;;;;;;;;;5.69;65.58;101997.16;5053596;28;20509;-60
2023/01/23 00:50:27;;;;;;;21.75;16.17;;;;;;;5.69;65.53;101995.25;5053790;28;19920;-61
2023/01/23 00:52:55;;;;;;;20.20;15.20;;;;;;;5.69;65.59;102006.31;5053884;28;20056;-61
2023/01/23 00:55:22;;;;;;;19.00;14.63;;;;;;;5.73;65.62;102003.03;5053788;28;20061;-61
2023/01/23 00:57:51;;;;;;;21.23;15.38;;;;;;;5.74;65.81;102004.75;5052257;28;20057;-61
2023/01/23 01:00:18;;;;;;;20.33;15.68;;;;;;;5.71;65.70;102006.06;5053711;28;20068;-60
2023/01/23 01:02:45;;;;;;;21.27;15.50;;;;;;;5.76;65.55;102008.94;5054385;28;20057;-61
2023/01/23 01:05:13;;;;;;;20.48;14.52;;;;;;;5.78;65.43;102012.31;5054353;28;20473;-61
2023/01/23 01:07:40;;;;;;;24.40;17.02;;;;;;;5.69;65.04;102011.84;5054254;28;20061;-60
2023/01/23 01:10:08;;;;;;;20.42;14.68;;;;;;;5.72;65.00;102017.97;5054504;28;20060;-60
2023/01/23 01:12:35;;;;;;;20.25;14.57;;;;;;;5.67;65.30;102022.31;5053591;28;20053;-61
2023/01/23 01:15:06;;;;;;;20.23;14.43;;;;;;;5.68;65.21;102018.44;5054235;28;20061;-60
2023/01/23 01:17:33;;;;;;;18.67;14.68;;;;;;;5.70;65.06;102023.75;5052976;28;20061;-60
2023/01/23 01:20:00;;;;;;;19.77;14.65;;;;;;;5.73;64.99;102025.16;5054292;28;20053;-60
2023/01/23 01:22:27;;;;;;;18.20;14.15;;;;;;;5.66;65.07;102031.66;5054035;28;20060;-60
2023/01/23 01:24:56;;;;;;;19.65;14.45;;;;;;;5.69;65.09;102036.72;5054111;28;20401;-60
2023/01/23 01:27:23;;;;;;;19.15;14.30;;;;;;;5.72;65.08;102031.78;5053822;28;20080;-60
2023/01/23 01:29:51;;;;;;;17.73;13.20;;;;;;;5.75;65.23;102034.06;5054003;28;20397;-61
2023/01/23 01:32:19;;;;;;;21.00;15.15;;;;;;;5.79;64.85;102038.03;5053450;28;20052;-60
2023/01/23 01:34:47;;;;;;;17.77;13.20;;;;;;;5.75;64.90;102028.53;5053211;28;20057;-60
2023/01/23 01:37:14;;;;;;;19.00;14.85;;;;;;;5.80;64.79;102020.34;5053461;28;20049;-61
2023/01/23 01:39:41;;;;;;;21.13;14.73;;;;;;;5.70;64.55;102013.50;5053624;28;20113;-60
2023/01/23 01:42:08;;;;;;;18.42;13.75;;;;;;;5.66;65.09;102011.47;5053220;28;20056;-60
2023/01/23 01:44:53;;;;;;;20.20;14.23;;;;;;;5.70;65.26;102005.22;5053325;28;20496;-61
2023/01/23 01:47:22;;;;;;;17.50;13.65;;;;;;;5.65;65.24;102004.28;5053099;28;20057;-60
2023/01/23 01:49:52;;;;;;;17.10;13.63;;;;;;;5.63;65.21;102007.28;5052739;28;20053;-60
2023/01/23 01:52:20;;;;;;;16.83;13.23;;;;;;;5.59;65.13;102013.56;5033630;28;20050;-60
2023/01/23 01:54:51;;;;;;;16.20;13.10;;;;;;;5.54;65.04;102005.13;5033776;28;20049;-60
2023/01/23 01:57:21;;;;;;;17.25;13.35;;;;;;;5.51;65.02;102016.69;5033535;28;20057;-60
2023/01/23 01:59:54;;;;;;;17.75;14.30;;;;;;;5.52;65.16;102030.25;5045746;28;20052;-60
2023/01/23 02:02:25;;;;;;;16.85;12.95;;;;;;;5.50;65.73;102029.63;5052997;28;20371;-60
2023/01/23 02:04:57;;;;;;;19.48;14.20;;;;;;;5.44;65.55;102038.94;5053388;28;20053;-61
2023/01/23 02:07:31;;;;;;;20.75;14.48;;;;;;;5.50;65.58;102037.94;5047478;28;20061;-60
2023/01/23 02:09:59;;;;;;;17.85;13.80;;;;;;;5.58;65.11;102045.03;5033316;28;20078;-60
2023/01/23 02:12:27;;;;;;;17.98;13.63;;;;;;;5.43;65.34;102040.81;5033207;28;20045;-60
2023/01/23 02:14:55;;;;;;;17.20;12.57;;;;;;;5.47;65.67;102055.00;5033363;28;20065;-60
2023/01/23 02:17:23;;;;;;;18.70;14.43;;;;;;;5.48;65.83;102048.38;5033091;28;20060;-60
2023/01/23 02:19:59;;;;;;;17.95;14.00;;;;;;;5.44;65.72;102048.06;5033371;28;20057;-61
2023/01/23 02:22:36;;;;;;;16.23;13.02;;;;;;;5.45;65.60;102048.88;5032933;28;20049;-60
2023/01/23 02:25:11;;;;;;;20.77;14.18;;;;;;;5.48;65.97;102043.72;5033748;28;20056;-59
2023/01/23 02:27:39;;;;;;;18.17;13.57;;;;;;;5.49;65.68;102047.31;5032893;28;20065;-60
2023/01/23 02:30:08;;;;;;;18.88;14.48;;;;;;;5.52;65.69;102040.47;5033164;28;20057;-60
2023/01/23 02:32:36;;;;;;;18.52;13.93;;;;;;;5.53;65.84;102043.00;5032903;28;20402;-60
2023/01/23 02:35:10;;;;;;;19.70;14.30;;;;;;;5.57;65.92;102055.25;5033105;28;20507;-60
2023/01/23 02:37:40;;;;;;;16.08;12.77;;;;;;;5.56;65.89;102052.72;5032468;28;20057;-60
2023/01/23 02:40:09;;;;;;;20.50;14.65;;;;;;;5.53;65.59;102048.53;5049541;28;20077;-60
2023/01/23 02:42:37;;;;;;;16.00;12.38;;;;;;;5.54;65.68;102052.94;5051014;28;20064;-60
2023/01/23 02:45:08;;;;;;;17.88;14.07;;;;;;;5.60;65.54;102057.50;5052244;28;20060;-60
2023/01/23 02:47:35;;;;;;;16.60;12.32;;;;;;;5.66;65.60;102056.53;5052372;28;20048;-60
2023/01/23 02:50:02;;;;;;;17.13;13.00;;;;;;;5.74;65.57;102060.03;5052406;28;20053;-60
2023/01/23 02:52:30;;;;;;;15.60;12.35;;;;;;;5.77;65.64;102060.38;5051719;28;20053;-60
2023/01/23 02:54:58;;;;;;;15.40;11.05;;;;;;;5.80;65.05;102064.59;5041222;28;20045;-60
2023/01/23 02:57:25;;;;;;;19.67;13.93;;;;;;;5.79;65.15;102068.44;5049569;28;20431;-60
2023/01/23 03:02:38;;;;;;;18.90;13.98;;;;;;;5.81;64.99;102071.78;5048775;28;20056;-60
2023/01/23 03:05:06;;;;;;;15.77;11.75;;;;;;;5.79;64.84;102065.66;5037023;28;20413;-60
2023/01/23 03:07:34;;;;;;;17.05;13.40;;;;;;;5.76;64.90;102077.22;5051025;28;20056;-60
2023/01/23 03:10:01;;;;;;;18.20;13.35;;;;;;;5.77;65.13;102071.44;5052289;28;20056;-60
2023/01/23 03:12:29;;;;;;;16.25;12.63;;;;;;;5.74;64.87;102068.34;5051784;28;20068;-60
2023/01/23 03:14:57;;;;;;;16.63;12.50;;;;;;;5.78;65.08;102070.38;5051290;28;20052;-60
2023/01/23 03:17:24;;;;;;;17.20;13.13;;;;;;;5.78;65.07;102061.25;5051997;28;20067;-60
2023/01/23 03:19:54;;;;;;;16.25;12.63;;;;;;;5.74;65.28;102060.88;5052418;28;20135;-59
2023/01/23 03:22:21;;;;;;;15.82;12.40;;;;;;;5.77;65.45;102060.38;5051760;28;20057;-60
2023/01/23 03:24:48;;;;;;;20.70;15.60;;;;;;;5.75;64.68;102056.19;5052384;28;20061;-60
2023/01/23 03:27:16;;;;;;;17.77;12.65;;;;;;;5.74;65.17;102058.09;5052305;28;20056;-60
2023/01/23 03:32:28;;;;;;;17.15;12.75;;;;;;;5.80;65.18;102059.06;5056946;28;20119;-60
2023/01/23 03:34:58;;;;;;;18.25;13.07;;;;;;;5.83;65.01;102061.34;5052245;28;20064;-60
2023/01/23 03:37:25;;;;;;;;;;;;;;;5.79;64.81;102058.22;5052558;28;20064;-60
2023/01/23 03:42:37;;;;;;;16.67;12.75;;;;;;;5.74;65.52;102066.41;5052558;28;20082;-60
2023/01/23 03:45:05;;;;;;;16.25;13.20;;;;;;;5.73;65.32;102055.56;5051700;28;20060;-60
2023/01/23 03:47:33;;;;;;;17.27;13.23;;;;;;;5.76;65.10;102058.72;5051406;28;20052;-60
2023/01/23 03:50:05;;;;;;;16.67;13.18;;;;;;;5.72;64.89;102056.69;5041343;28;20054;-60
2023/01/23 03:52:33;;;;;;;19.00;15.30;;;;;;;5.59;65.06;102053.09;5031725;28;20486;-60
2023/01/23 03:55:00;;;;;;;17.52;13.55;;;;;;;5.65;65.13;102046.59;5033805;28;20057;-60
2023/01/23 03:57:28;;;;;;;16.50;12.80;;;;;;;5.68;65.15;102057.16;5048368;28;20076;-60
2023/01/23 03:59:55;;;;;;;17.38;13.02;;;;;;;5.70;64.82;102060.50;5052018;28;20056;-62
2023/01/23 04:02:23;;;;;;;18.17;13.35;;;;;;;5.70;64.63;102066.03;5052842;28;20060;-62
2023/01/23 04:04:50;;;;;;;15.73;12.15;;;;;;;5.74;64.89;102065.56;5052205;28;20053;-62
2023/01/23 04:07:19;;;;;;;17.83;13.27;;;;;;;5.78;65.05;102064.84;5041704;28;20509;-61
2023/01/23 04:09:46;;;;;;;16.05;12.35;;;;;;;5.77;64.84;102056.78;5035518;28;20057;-62
2023/01/23 04:12:14;;;;;;;19.92;14.10;;;;;;;5.72;64.64;102049.22;5035320;28;20053;-62
2023/01/23 04:14:41;;;;;;;16.60;12.85;;;;;;;5.62;65.58;102047.06;5035405;28;20478;-62
2023/01/23 04:17:08;;;;;;;18.98;13.40;;;;;;;5.59;65.28;102053.09;5035356;28;20057;-62
2023/01/23 04:19:39;;;;;;;18.85;13.00;;;;;;;5.59;65.67;102053.09;5035336;28;20470;-62
2023/01/23 04:22:06;;;;;;;17.27;13.27;;;;;;;5.62;65.58;102055.34;5035113;28;20060;-62
2023/01/23 04:24:35;;;;;;;18.90;13.70;;;;;;;5.65;65.19;102065.94;5049991;28;20057;-62
2023/01/23 04:27:02;;;;;;;17.60;13.52;;;;;;;5.65;65.59;102063.19;5054764;28;20049;-62
2023/01/23 04:29:32;;;;;;;17.42;13.02;;;;;;;5.65;65.15;102062.34;5054577;28;20053;-62
2023/01/23 04:32:00;;;;;;;18.42;13.30;;;;;;;5.74;65.87;102065.56;5053713;28;20167;-60
2023/01/23 04:34:27;;;;;;;18.60;13.48;;;;;;;5.69;65.29;102069.91;5052889;28;20049;-62
2023/01/23 04:36:55;;;;;;;17.63;12.43;;;;;;;5.69;65.46;102069.03;5054902;28;20063;-61
2023/01/23 04:39:22;;;;;;;17.88;13.57;;;;;;;5.67;65.21;102072.06;5054722;28;20053;-62
2023/01/23 04:41:50;;;;;;;16.42;12.68;;;;;;;5.75;64.97;102072.75;5036895;28;20057;-62
2023/01/23 04:44:20;;;;;;;17.15;12.93;;;;;;;5.72;64.91;102065.81;5034863;28;20155;-62
2023/01/23 04:46:51;;;;;;;16.30;12.35;;;;;;;5.77;64.73;102074.19;5034728;28;20426;-61
2023/01/23 04:49:19;;;;;;;16.95;12.63;;;;;;;5.74;64.75;102069.16;5036234;28;20053;-61
2023/01/23 04:51:47;;;;;;;15.70;12.23;;;;;;;5.73;64.53;102072.16;5054035;28;20076;-61
2023/01/23 04:54:15;;;;;;;16.63;11.93;;;;;;;5.77;64.61;102073.38;5054558;28;20481;-62
2023/01/23 04:56:43;;;;;;;16.63;12.23;;;;;;;5.79;64.42;102065.66;5054227;28;20075;-62
2023/01/23 04:59:12;;;;;;;16.92;12.55;;;;;;;5.79;64.64;102063.72;5053975;28;20052;-62
2023/01/23 05:01:39;;;;;;;19.20;14.40;;;;;;;5.79;64.15;102068.44;5054187;28;20076;-62
2023/01/23 05:04:06;;;;;;;16.95;12.43;;;;;;;5.75;64.07;102070.00;5053966;28;20056;-61
2023/01/23 05:06:34;;;;;;;17.13;12.65;;;;;;;5.64;64.50;102068.94;5054302;28;20053;-62
2023/01/23 05:09:01;;;;;;;15.48;12.23;;;;;;;5.67;64.36;102071.22;5052648;28;20057;-62
2023/01/23 05:11:28;;;;;;;16.88;12.65;;;;;;;5.68;64.36;102067.38;5054238;28;20060;-62
2023/01/23 05:13:56;;;;;;;16.27;12.38;;;;;;;5.56;64.74;102064.59;5052867;28;20048;-62
2023/01/23 05:16:25;;;;;;;16.55;12.13;;;;;;;5.56;64.97;102061.84;5054070;28;20053;-62
2023/01/23 05:18:52;;;;;;;17.23;12.43;;;;;;;5.61;64.89;102053.69;5054104;28;20481;-62
2023/01/23 05:21:19;;;;;;;15.73;12.15;;;;;;;5.58;64.82;102053.31;5053863;28;20057;-62
2023/01/23 05:23:47;;;;;;;16.50;12.73;;;;;;;5.47;65.00;102061.38;5053828;28;20057;-62
2023/01/23 05:26:14;;;;;;;18.98;13.75;;;;;;;5.51;65.42;102056.22;5053801;28;20481;-62
2023/01/23 05:28:41;;;;;;;17.50;13.02;;;;;;;5.44;64.64;102066.56;5053622;28;20057;-61
2023/01/23 05:31:08;;;;;;;18.00;13.02;;;;;;;5.51;64.82;102061.75;5050215;28;20060;-62
2023/01/23 05:33:39;;;;;;;16.70;12.35;;;;;;;5.51;65.27;102060.91;5033731;28;20398;-61
2023/01/23 05:36:07;;;;;;;16.02;11.93;;;;;;;5.56;64.93;102083.13;5034172;28;20061;-62
2023/01/23 05:38:34;;;;;;;14.20;11.10;;;;;;;5.53;64.71;102065.09;5033720;28;20054;-62
2023/01/23 05:41:02;;;;;;;15.25;11.50;;;;;;;5.51;64.85;102077.50;5040439;28;20060;-62
2023/01/23 05:43:29;;;;;;;15.13;11.48;;;;;;;5.54;64.59;102085.28;5045653;28;20056;-61
2023/01/23 05:45:59;;;;;;;15.48;10.70;;;;;;;5.57;64.84;102080.13;5053607;28;20060;-62
2023/01/23 05:48:26;;;;;;;;;;;;;;;5.54;64.94;102083.34;5036230;28;20057;-62
2023/01/23 05:50:55;;;;;;;15.02;10.93;;;;;;;5.58;64.80;102083.72;5053246;28;19928;-62
2023/01/23 05:53:22;;;;;;;15.98;12.45;;;;;;;5.63;64.48;102079.16;5049918;28;20489;-62
2023/01/23 05:55:49;;;;;;;14.98;11.40;;;;;;;5.65;64.57;102084.47;5043429;28;20053;-62
2023/01/23 05:58:16;;;;;;;15.30;11.40;;;;;;;5.62;64.32;102085.75;5040291;28;20049;-62
2023/01/23 06:00:43;;;;;;;16.35;11.75;;;;;;;5.64;64.30;102093.81;5049301;28;20049;-62
2023/01/23 06:03:11;;;;;;;15.00;11.80;;;;;;;5.63;64.38;102103.22;5051076;28;20397;-62
2023/01/23 06:05:40;;;;;;;17.00;11.43;;;;;;;5.65;64.13;102095.50;5046701;28;20420;-62
2023/01/23 06:08:08;;;;;;;15.57;11.67;;;;;;;5.63;64.64;102098.50;5049006;28;20464;-62
2023/01/23 06:10:37;;;;;;;16.58;11.80;;;;;;;5.63;64.43;102101.28;5043691;28;20375;-62
2023/01/23 06:13:04;;;;;;;17.40;12.15;;;;;;;5.62;64.75;102107.03;5048494;28;20500;-62
2023/01/23 06:15:32;;;;;;;15.30;11.55;;;;;;;5.67;64.68;102108.00;5050098;28;20406;-61
2023/01/23 06:17:59;;;;;;;16.70;12.48;;;;;;;5.70;64.84;102107.50;5047442;28;20060;-62
2023/01/23 06:20:26;;;;;;;15.98;11.52;;;;;;;5.74;64.38;102120.88;5049553;28;20056;-61
2023/01/23 06:22:54;;;;;;;16.80;12.38;;;;;;;5.74;64.41;102115.34;5049587;28;20048;-61
2023/01/23 06:25:22;;;;;;;15.18;11.30;;;;;;;5.76;64.48;102124.22;5050353;28;20462;-62
2023/01/23 06:27:50;;;;;;;17.13;11.77;;;;;;;5.69;64.58;102119.66;5048405;28;20060;-62
2023/01/23 06:30:17;;;;;;;17.40;12.50;;;;;;;5.69;64.95;102124.31;5047718;28;20434;-62
2023/01/23 06:32:45;;;;;;;16.55;11.95;;;;;;;5.74;64.61;102130.00;5049884;28;20064;-62
2023/01/23 06:35:12;;;;;;;14.60;11.65;;;;;;;5.74;64.52;102126.41;5050758;28;20048;-62
2023/01/23 06:37:39;;;;;;;16.65;12.43;;;;;;;5.81;64.32;102136.22;5050134;28;20048;-62
2023/01/23 06:40:11;;;;;;;17.45;12.50;;;;;;;5.79;64.14;102138.38;5049310;28;20064;-62
2023/01/23 06:42:40;;;;;;;17.55;12.68;;;;;;;5.83;64.30;102141.53;5046744;28;20049;-62
2023/01/23 06:45:09;;;;;;;17.48;12.68;;;;;;;5.82;64.21;102145.38;5047929;28;20482;-61
2023/01/23 06:47:36;;;;;;;17.52;12.15;;;;;;;5.79;64.41;102145.84;5046545;28;20056;-61
2023/01/23 06:50:05;;;;;;;17.80;13.13;;;;;;;5.81;63.97;102138.16;5050877;28;20079;-62
2023/01/23 06:52:32;;;;;;;17.48;12.02;;;;;;;5.82;64.14;102150.91;5032882;28;20053;-61
2023/01/23 06:55:00;;;;;;;17.88;12.90;;;;;;;5.83;64.27;102158.94;5043263;28;20398;-61
2023/01/23 06:57:27;;;;;;;17.27;13.02;;;;;;;5.85;64.11;102155.94;5033027;28;20053;-62
2023/01/23 06:59:55;;;;;;;16.85;12.60;;;;;;;5.82;64.33;102161.97;5032493;28;20387;-62
2023/01/23 07:02:23;;;;;;;16.75;12.57;;;;;;;5.81;64.45;102158.34;5032249;28;20128;-61
2023/01/23 07:04:50;;;;;;;16.70;11.73;;;;;;;5.82;64.19;102170.28;5032362;28;20052;-62
2023/01/23 07:07:18;;;;;;;17.55;11.90;;;;;;;5.84;64.18;102160.66;5044129;28;20405;-62
2023/01/23 07:09:45;;;;;;;17.58;13.43;;;;;;;5.81;63.62;102168.56;5031831;28;20053;-62
2023/01/23 07:12:13;;;;;;;18.77;12.98;;;;;;;5.78;63.95;102166.31;5043869;28;20396;-62
2023/01/23 07:14:40;;;;;;;17.83;13.43;;;;;;;5.82;64.09;102161.97;5047769;28;20044;-62
2023/01/23 07:17:09;;;;;;;20.52;14.00;;;;;;;5.79;64.20;102170.75;5041000;28;20124;-62
2023/01/23 07:19:36;;;;;;;20.85;14.93;;;;;;;5.78;64.54;102172.66;5045848;28;20512;-62
2023/01/23 07:22:03;;;;;;;20.17;14.45;;;;;;;5.80;64.42;102180.72;5048072;28;20057;-63
2023/01/23 07:24:31;;;;;;;20.27;13.98;;;;;;;5.79;64.43;102190.09;5050341;28;20053;-62
2023/01/23 07:26:58;;;;;;;19.92;14.27;;;;;;;5.81;64.48;102193.47;5049280;28;20057;-62
2023/01/23 07:29:25;;;;;;;21.30;14.77;;;;;;;5.75;64.55;102198.00;5046144;28;20478;-62
2023/01/23 07:31:53;;;;;;;20.33;14.00;;;;;;;5.77;65.00;102206.09;5042821;28;20053;-62
2023/01/23 07:34:21;;;;;;;21.02;15.05;;;;;;;5.83;64.46;102205.13;5046895;28;20053;-62
2023/01/23 07:36:49;;;;;;;21.08;14.10;;;;;;;5.77;64.60;102200.56;5047243;28;20053;-62
2023/01/23 07:39:16;;;;;;;22.77;15.52;;;;;;;5.73;64.46;102208.47;5053742;28;20397;-62
2023/01/23 07:41:43;;;;;;;19.65;13.68;;;;;;;5.80;64.72;102211.16;5052046;28;20056;-62
2023/01/23 07:44:16;;;;;;;20.38;14.82;;;;;;;5.85;64.51;102212.09;5052340;28;20044;-62
2023/01/23 07:46:43;;;;;;;22.20;15.32;;;;;;;5.88;64.21;102208.03;5051439;28;20519;-62
2023/01/23 07:49:11;;;;;;;19.15;14.35;;;;;;;5.81;64.45;102210.88;5049850;28;20059;-62
2023/01/23 07:51:39;;;;;;;20.63;15.27;;;;;;;5.85;64.56;102206.56;5052834;28;20057;-65
2023/01/23 07:54:07;;;;;;;20.50;13.55;;;;;;;5.95;64.56;102200.47;5043435;28;20052;-64
2023/01/23 07:56:34;;;;;;;19.33;13.65;;;;;;;6.01;64.09;102210.56;5050764;28;20048;-65
2023/01/23 07:59:04;;;;;;;22.48;15.63;;;;;;;6.06;63.66;102207.06;5048434;28;20048;-64
2023/01/23 08:01:32;;;;;;;21.55;14.73;;;;;;;6.07;63.98;102215.16;5050176;28;20421;-64
2023/01/23 08:03:59;;;;;;;21.50;15.20;;;;;;;6.03;63.91;102219.47;5049774;28;20489;-65
2023/01/23 08:06:27;;;;;;;20.67;15.00;;;;;;;6.10;63.63;102213.81;5053841;28;20045;-65
2023/01/23 08:08:55;;;;;;;20.60;14.88;;;;;;;6.17;63.44;102225.59;5052152;28;20061;-65
2023/01/23 08:11:25;;;;;;;20.33;14.80;;;;;;;6.16;63.26;102223.09;5046165;28;20384;-64
2023/01/23 08:13:52;;;;;;;20.55;13.57;;;;;;;6.18;63.29;102226.44;5047909;28;20053;-65
2023/01/23 08:16:20;;;;;;;18.13;13.05;;;;;;;6.24;63.41;102226.31;5047572;28;20049;-65
2023/01/23 08:18:47;;;;;;;19.80;15.23;;;;;;;6.21;62.96;102225.94;5051777;28;20053;-64
2023/01/23 08:21:15;;;;;;;18.50;12.85;;;;;;;6.26;63.23;102229.69;5047890;28;20053;-65
2023/01/23 08:23:42;;;;;;;22.13;14.60;;;;;;;6.30;63.20;102233.66;5051816;28;20052;-65
2023/01/23 08:26:13;;;;;;;19.92;14.48;;;;;;;6.25;62.85;102227.97;5050518;28;20485;-65
2023/01/23 08:28:41;;;;;;;18.73;13.05;;;;;;;6.21;63.22;102231.47;5047355;28;20060;-64
2023/01/23 08:31:10;;;;;;;21.83;14.35;;;;;;;6.25;63.32;102218.84;5047790;28;20433;-64
2023/01/23 08:33:39;;;;;;;21.52;13.48;;;;;;;6.32;63.02;102210.41;5045495;28;20507;-65
2023/01/23 08:36:08;;;;;;;19.92;14.20;;;;;;;6.34;63.24;102216.53;5050305;28;20059;-64
2023/01/23 08:38:35;;;;;;;19.23;13.07;;;;;;;6.35;63.32;102224.63;5048466;28;20045;-65
2023/01/23 08:41:03;;;;;;;18.30;12.98;;;;;;;6.38;62.85;102226.88;5048595;28;20490;-64
2023/01/23 08:43:32;;;;;;;18.35;13.02;;;;;;;6.50;62.38;102233.25;5047338;28;20053;-64
2023/01/23 08:46:00;;;;;;;17.95;12.10;;;;;;;6.50;62.53;102224.09;5051180;28;20057;-65
2023/01/23 08:48:28;;;;;;;18.15;12.57;;;;;;;6.56;62.62;102231.44;5049201;28;20053;-64
2023/01/23 08:51:03;;;;;;;17.73;13.10;;;;;;;6.61;62.10;102227.94;5052216;28;20052;-65
2023/01/23 08:53:32;;;;;;;16.33;12.70;;;;;;;6.69;62.71;102227.56;5051527;28;20497;-64
2023/01/23 08:56:00;;;;;;;17.88;13.60;;;;;;;6.75;62.30;102242.34;5050808;28;20053;-64
2023/01/23 08:58:27;;;;;;;17.80;12.68;;;;;;;6.84;61.11;102235.31;5050659;28;20375;-65
2023/01/23 09:00:56;;;;;;;18.10;13.52;;;;;;;6.95;60.79;102233.59;5045893;28;20099;-64
2023/01/23 09:03:24;;;;;;;17.10;11.93;;;;;;;6.96;61.43;102229.75;5046102;28;20052;-65
2023/01/23 09:05:51;;;;;;;16.00;12.45;;;;;;;7.00;61.17;102228.19;5049622;28;20053;-65
2023/01/23 09:08:18;;;;;;;16.50;11.98;;;;;;;7.15;60.21;102230.41;5049069;28;20072;-64
2023/01/23 09:10:46;;;;;;;18.73;12.50;;;;;;;7.34;60.31;102231.03;5043510;28;20409;-65
2023/01/23 09:13:13;;;;;;;15.07;11.07;;;;;;;7.30;60.83;102217.66;5039425;28;20171;-64
2023/01/23 09:15:40;;;;;;;15.13;11.35;;;;;;;7.34;60.28;102218.00;5052812;28;20057;-65
2023/01/23 09:18:09;;;;;;;15.55;11.02;;;;;;;7.42;59.15;102219.53;5043859;28;20057;-65
2023/01/23 09:20:38;;;;;;;16.43;12.47;;;;;;;7.46;59.29;102221.53;5049807;28;20060;-65
2023/01/23 09:23:05;;;;;;;13.63;10.25;;;;;;;7.55;59.46;102224.75;5048403;28;20060;-63
2023/01/23 09:25:32;;;;;;;15.75;11.07;;;;;;;7.67;58.77;102233.00;5050146;28;20037;-65
2023/01/23 09:27:59;;;;;;;14.77;10.88;;;;;;;7.60;58.09;102233.16;5048965;28;20489;-65
2023/01/23 09:30:27;;;;;;;14.73;10.75;;;;;;;7.62;59.03;102238.44;5042961;28;20046;-64
2023/01/23 09:32:54;;;;;;;13.05;10.65;;;;;;;7.70;59.01;102238.03;5048269;28;20068;-64
2023/01/23 09:35:23;;;;;;;12.20;9.32;;;;;;;7.65;58.40;102247.09;5048272;28;20393;-65
2023/01/23 09:37:59;;;;;;;13.55;10.30;;;;;;;7.75;58.09;102257.53;5047419;28;20060;-64
2023/01/23 09:40:29;;;;;;;13.77;10.43;;;;;;;7.76;58.04;102258.38;5046031;28;20405;-65
2023/01/23 09:43:00;;;;;;;16.27;11.55;;;;;;;7.71;58.34;102259.97;5046520;28;20057;-64
2023/01/23 09:45:28;;;;;;;13.65;10.60;;;;;;;7.92;57.20;102263.09;5047251;28;20049;-64
2023/01/23 09:48:04;;;;;;;14.15;10.40;;;;;;;7.92;57.26;102257.53;5048532;28;20577;-65
2023/01/23 09:50:38;;;;;;;12.23;9.70;;;;;;;8.03;56.59;102270.47;5048526;28;20049;-65
2023/01/23 09:53:12;;;;;;;13.27;10.48;;;;;;;8.09;57.39;102268.63;5049707;28;20405;-65
2023/01/23 09:55:44;;;;;;;13.85;10.23;;;;;;;8.11;56.40;102266.44;5048592;28;20049;-65
2023/01/23 09:58:18;;;;;;;13.20;9.85;;;;;;;8.17;56.06;102265.44;5043526;28;20390;-64
2023/01/23 10:00:46;;;;;;;12.80;9.70;;;;;;;8.16;56.76;102269.28;5046867;28;20060;-63
2023/01/23 10:03:16;;;;;;;11.35;8.85;;;;;;;8.05;56.70;102271.06;5047056;28;20394;-65
2023/01/23 10:06:00;;;;;;;11.27;8.77;;;;;;;8.03;56.01;102270.47;5044948;28;20611;-64
2023/01/23 10:08:37;;;;;;;14.80;10.10;;;;;;;7.89;57.15;102271.91;5043080;28;20049;-64
2023/01/23 10:11:08;;;;;;;12.13;9.35;;;;;;;7.90;57.13;102276.38;5046818;28;20053;-65
2023/01/23 10:13:48;;;;;;;12.55;9.02;;;;;;;7.95;57.12;102282.00;5047171;28;20053;-64
2023/01/23 10:16:38;;;;;;;11.63;8.88;;;;;;;7.89;57.39;102274.69;5049188;28;20049;-65
2023/01/23 10:19:15;;;;;;;11.98;8.93;;;;;;;7.96;56.37;102280.91;5042617;28;20056;-64
2023/01/23 10:21:51;;;;;;;13.80;10.20;;;;;;;7.88;57.54;102281.34;5049197;28;20056;-65
2023/01/23 10:24:39;;;;;;;12.80;9.35;;;;;;;7.84;56.86;102272.66;5049163;28;20052;-65
2023/01/23 10:27:18;;;;;;;13.15;9.25;;;;;;;7.91;56.88;102276.09;5043741;28;20060;-65
2023/01/23 10:29:50;;;;;;;12.05;9.02;;;;;;;7.96;57.61;102280.91;5048594;28;20049;-63
2023/01/23 10:32:24;;;;;;;15.63;11.38;;;;;;;7.83;56.81;102286.78;5048901;28;20060;-65
2023/01/23 10:34:56;;;;;;;13.63;9.80;;;;;;;7.99;56.83;102283.19;5042361;28;20049;-64
2023/01/23 10:37:40;;;;;;;12.05;9.63;;;;;;;8.07;56.39;102282.75;5042506;28;20144;-65
2023/01/23 10:40:13;;;;;;;12.27;9.27;;;;;;;8.35;55.44;102272.63;5049586;28;20496;-65
2023/01/23 10:42:41;;;;;;;12.25;10.15;;;;;;;8.64;55.84;102267.78;5047378;28;20075;-64
2023/01/23 10:45:17;;;;;;;13.18;10.23;;;;;;;8.65;55.12;102271.41;5047624;28;20405;-65
2023/01/23 10:47:47;;;;;;;13.25;9.98;;;;;;;8.69;54.78;102270.66;5043406;28;20053;-64
2023/01/23 10:50:15;;;;;;;12.95;10.05;;;;;;;8.73;55.05;102284.84;5046190;28;20060;-65
2023/01/23 10:52:45;;;;;;;13.13;10.38;;;;;;;8.77;54.25;102274.91;5048064;28;20059;-65
2023/01/23 10:55:29;;;;;;;12.85;10.15;;;;;;;8.75;55.35;102268.75;5049825;28;20057;-65
2023/01/23 10:58:01;;;;;;;13.50;10.65;;;;;;;8.73;55.16;102273.75;5038329;28;20998;-65
2023/01/23 11:00:36;;;;;;;13.55;9.75;;;;;;;8.67;55.40;102275.63;5047495;28;20045;-65
2023/01/23 11:03:24;;;;;;;12.02;9.68;;;;;;;8.65;54.37;102277.81;5046995;28;20399;-65
2023/01/23 11:05:54;;;;;;;14.52;12.27;;;;;;;8.57;54.33;102271.84;5046996;28;20493;-65
2023/01/23 11:08:37;;;;;;;13.95;11.15;;;;;;;8.56;55.84;102265.47;5045429;28;20052;-65
2023/01/23 11:11:23;;;;;;;15.45;11.18;;;;;;;8.53;55.19;102264.03;5043409;28;20056;-65
2023/01/23 11:14:04;;;;;;;13.95;10.93;;;;;;;8.44;55.11;102264.72;5045807;28;20048;-64
2023/01/23 11:16:31;;;;;;;13.55;10.68;;;;;;;8.38;55.07;102261.03;5046251;28;20059;-65
2023/01/23 11:19:11;;;;;;;15.57;12.30;;;;;;;8.28;54.21;102256.16;5045003;28;20504;-64
2023/01/23 11:21:50;;;;;;;14.10;10.68;;;;;;;8.11;55.51;102258.13;5050037;28;20048;-65
2023/01/23 11:24:21;;;;;;;13.10;10.25;;;;;;;8.06;56.36;102252.47;5050166;28;20059;-64
2023/01/23 11:26:59;;;;;;;13.23;10.48;;;;;;;8.06;55.85;102258.03;5035568;28;20041;-63
2023/01/23 11:29:29;;;;;;;16.02;12.77;;;;;;;8.00;55.87;102253.50;5048395;28;20433;-64
2023/01/23 11:32:00;;;;;;;15.93;12.50;;;;;;;7.93;57.36;102257.28;5049188;28;20540;-65
2023/01/23 11:34:34;;;;;;;17.52;13.63;;;;;;;7.83;55.74;102250.72;5048169;28;20074;-64
2023/01/23 11:37:11;;;;;;;15.07;11.90;;;;;;;7.81;57.31;102251.00;5034505;28;20045;-64